This is the latest recevied weather packets stored in our database for station/object OK1LPD-6. If no packets are shown the sender has not sent any weather packets the latest 10 day(s).
| Time | Temp. | Humidity | Pressure | Rain* | Wind** | Luminosity | Snow |
|---|---|---|---|---|---|---|---|
| 1777945499 | 13.89° C | 93% | 1009.3 hPa | 0 mm | - | - | - |
| 1777944889 | 13.89° C | 92% | 1009.5 hPa | 0 mm | - | - | - |
| 1777944289 | 13.89° C | 92% | 1009.6 hPa | 0 mm | - | - | - |
| 1777943701 | 13.89° C | 92% | 1009.7 hPa | 0 mm | - | - | - |
| 1777943089 | 14.44° C | 92% | 1009.7 hPa | 0 mm | - | - | - |
| 1777942489 | 14.44° C | 91% | 1009.9 hPa | 0 mm | - | - | - |
| 1777941900 | 14.44° C | 91% | 1009.9 hPa | 0 mm | - | - | - |
| 1777941289 | 14.44° C | 89% | 1010.1 hPa | 0 mm | - | - | - |
| 1777940689 | 14.44° C | 88% | 1009.9 hPa | 0 mm | - | - | - |
| 1777940102 | 14.44° C | 87% | 1010.3 hPa | 0 mm | - | - | - |
| 1777939490 | 15° C | 84% | 1010.1 hPa | 0 mm | - | - | - |
| 1777938890 | 15° C | 83% | 1010 hPa | 0.25 mm | - | - | - |
| 1777938307 | 15.56° C | 81% | 1010.1 hPa | 1.02 mm | - | - | - |
| 1777937690 | 15.56° C | 78% | 1010.4 hPa | 1.27 mm | - | - | - |
| 1777937090 | 16.11° C | 76% | 1010.5 hPa | 1.27 mm | - | - | - |
| 1777936511 | 16.67° C | 72% | 1010.6 hPa | 1.27 mm | - | - | - |
| 1777935891 | 16.67° C | 71% | 1010.3 hPa | 1.27 mm | - | - | - |
| 1777935290 | 16.67° C | 73% | 1010.7 hPa | 1.02 mm | - | - | - |
| 1777934708 | 16.67° C | 75% | 1011.4 hPa | 0.25 mm | - | - | - |
| 1777934090 | 16.67° C | 73% | 1011.8 hPa | 0 mm | - | - | - |
| 1777933491 | 17.22° C | 70% | 1011.9 hPa | 0 mm | - | - | - |
| 1777932910 | 17.78° C | 63% | 1012.5 hPa | 0 mm | - | - | - |
| 1777932290 | 17.22° C | 65% | 1012.4 hPa | 0 mm | - | - | - |
| 1777931690 | 16.67° C | 66% | 1012.3 hPa | 0 mm | - | - | - |
| 1777931108 | 16.67° C | 68% | 1011.7 hPa | 0 mm | - | - | - |
* Rain latest hour (hover to see other rain measurements)
** Current wind speed in m/s (hover to see current wind gust speed)